Time;durP1;ratioP1;P1;durP2;ratioP2;P2;SDS_P1;SDS_P2;PMS_P1;PMS_P2;Temp;Humidity;BMP_temperature;BMP_pressure;BME280_temperature;BME280_humidity;BME280_pressure;Samples;Min_cycle;Max_cycle;Signal;HPM_P1;HPM_P2
2022/06/24 00:01:55;;;;;;;2.40;1.55;;;;;;;18.50;57.03;100418.78;18425776;32;20101;-55
2022/06/24 00:12:04;;;;;;;2.53;1.62;;;;;;;18.82;55.57;100416.75;18478003;31;20113;-56
2022/06/24 00:22:11;;;;;;;2.85;1.60;;;;;;;18.29;57.04;100434.44;18425024;32;20085;-56
2022/06/24 00:32:14;;;;;;;2.47;1.40;;;;;;;18.30;57.16;100434.41;18424319;32;20111;-56
2022/06/24 00:42:20;;;;;;;3.58;1.60;;;;;;;18.18;57.60;100434.81;18422912;32;20135;-56
2022/06/24 00:52:23;;;;;;;2.85;1.80;;;;;;;17.76;58.20;100433.50;18423405;32;20093;-56
2022/06/24 01:02:28;;;;;;;4.20;2.05;;;;;;;17.81;58.18;100436.00;18423183;32;20093;-55
2022/06/24 01:12:32;;;;;;;3.78;1.80;;;;;;;17.85;58.00;100430.56;18422857;32;20111;-56
2022/06/24 01:22:37;;;;;;;2.35;1.60;;;;;;;17.57;59.17;100426.16;18422257;32;20117;-55
2022/06/24 01:32:41;;;;;;;2.70;1.73;;;;;;;17.60;59.66;100426.06;18422769;32;20681;-55
2022/06/24 01:42:49;;;;;;;3.22;2.10;;;;;;;17.70;59.99;100418.72;18421648;32;20372;-55
2022/06/24 01:52:52;;;;;;;4.28;2.25;;;;;;;17.44;60.82;100423.03;18421381;32;20147;-55
2022/06/24 02:02:57;;;;;;;4.30;1.98;;;;;;;17.10;62.59;100407.34;18420840;32;20096;-55
2022/06/24 02:23:23;;;;;;;4.00;1.92;;;;;;;17.03;62.66;100407.53;18419793;32;20111;-55
2022/06/24 02:33:26;;;;;;;5.87;2.12;;;;;;;16.87;62.93;100412.34;18419375;32;20110;-55
2022/06/24 02:43:32;;;;;;;10.20;2.22;;;;;;;16.76;63.40;100406.50;18419031;32;20137;-55
2022/06/24 02:53:36;;;;;;;4.22;2.10;;;;;;;16.59;64.05;100412.22;18418671;32;20081;-55
2022/06/24 03:03:41;;;;;;;4.60;1.95;;;;;;;16.53;63.87;100402.72;18422914;32;20124;-55
2022/06/24 03:13:44;;;;;;;4.62;2.03;;;;;;;16.35;64.19;100394.41;18427701;32;20093;-55
2022/06/24 03:23:49;;;;;;;3.53;1.90;;;;;;;16.59;62.58;100404.31;18427078;32;20089;-55
2022/06/24 03:33:53;;;;;;;5.25;2.15;;;;;;;16.81;62.43;100416.94;18426259;32;20149;-55
2022/06/24 03:43:58;;;;;;;3.33;1.87;;;;;;;16.64;62.68;100424.38;18426018;32;20157;-55
2022/06/24 03:54:01;;;;;;;3.70;2.10;;;;;;;16.92;62.72;100420.13;18425827;32;20145;-55
2022/06/24 04:04:06;;;;;;;5.50;2.05;;;;;;;16.88;63.92;100413.19;18425335;32;20093;-55
2022/06/24 04:14:09;;;;;;;4.80;2.40;;;;;;;17.61;61.88;100424.28;18424793;32;20101;-55
2022/06/24 04:24:13;;;;;;;2.97;2.08;;;;;;;18.61;59.72;100432.50;18424580;32;20459;-55
2022/06/24 04:34:17;;;;;;;6.43;2.40;;;;;;;19.57;57.64;100427.22;18424066;32;20123;-55
2022/06/24 04:44:21;;;;;;;3.75;1.95;;;;;;;20.95;52.98;100429.47;18423739;32;20093;-55
2022/06/24 04:54:25;;;;;;;4.72;1.80;;;;;;;22.02;50.83;100436.87;18423352;32;20089;-55
2022/06/24 05:04:29;;;;;;;3.53;2.00;;;;;;;22.41;48.95;100438.44;18423107;32;20093;-55
2022/06/24 05:14:33;;;;;;;4.65;1.95;;;;;;;23.00;47.12;100423.91;18423272;32;20440;-55
2022/06/24 05:24:38;;;;;;;6.05;1.87;;;;;;;23.81;45.98;100431.00;18421777;32;20090;-56
2022/06/24 05:34:41;;;;;;;2.92;1.60;;;;;;;24.33;45.99;100433.41;18422962;32;20100;-56
2022/06/24 05:44:45;;;;;;;2.78;1.83;;;;;;;24.66;40.98;100437.63;18422695;32;20100;-56
2022/06/24 05:55:04;;;;;;;6.93;1.42;;;;;;;24.60;38.55;100432.69;18397774;32;20115;-56
2022/06/24 06:05:09;;;;;;;2.65;1.30;;;;;;;25.26;36.95;100441.09;18421060;32;20386;-55
2022/06/24 06:15:12;;;;;;;2.85;1.40;;;;;;;25.29;37.02;100446.25;18420422;32;20115;-56
2022/06/24 06:25:17;;;;;;;3.00;1.48;;;;;;;25.98;37.25;100441.88;18412589;31;20106;-56
2022/06/24 06:35:20;;;;;;;4.55;1.50;;;;;;;25.95;35.38;100432.25;18417607;32;20085;-56
2022/06/24 06:45:25;;;;;;;2.67;1.40;;;;;;;26.42;36.65;100434.53;18412935;32;20085;-56
2022/06/24 06:55:28;;;;;;;3.55;1.62;;;;;;;26.98;34.29;100420.81;18415290;32;20103;-56
2022/06/24 07:05:33;;;;;;;3.97;1.50;;;;;;;27.34;33.53;100422.78;18416167;32;20112;-56
2022/06/24 07:15:37;;;;;;;3.08;1.30;;;;;;;27.71;33.96;100409.38;18417436;32;20080;-56
2022/06/24 07:25:41;;;;;;;3.47;1.20;;;;;;;27.52;32.88;100404.47;18416276;31;20453;-56
2022/06/24 07:35:45;;;;;;;2.12;1.27;;;;;;;28.63;30.38;100392.53;18462510;31;20426;-55
2022/06/24 07:45:56;;;;;;;2.62;1.50;;;;;;;27.79;29.05;100382.84;18391633;31;20454;-56
2022/06/24 08:06:21;;;;;;;3.42;1.52;;;;;;;28.76;26.94;100367.41;18424928;32;20092;-55
2022/06/24 08:16:24;;;;;;;5.97;1.52;;;;;;;30.07;26.48;100360.38;18424888;32;20115;-55
2022/06/24 08:26:29;;;;;;;3.47;1.30;;;;;;;30.94;24.95;100354.72;18421615;31;92738;-56
2022/06/24 08:36:33;;;;;;;1.37;1.00;;;;;;;30.78;25.15;100349.81;18424796;32;20092;-55
2022/06/24 08:46:40;;;;;;;3.30;1.30;;;;;;;31.04;23.85;100342.09;18424160;32;20088;-56
2022/06/24 08:56:45;;;;;;;2.10;1.00;;;;;;;31.75;24.55;100331.22;18423206;31;20105;-56
2022/06/24 09:06:50;;;;;;;2.28;1.20;;;;;;;31.66;23.66;100325.69;18418565;32;20130;-55
2022/06/24 09:16:53;;;;;;;2.12;1.10;;;;;;;31.00;22.91;100317.28;18422886;32;20107;-55
2022/06/24 09:27:02;;;;;;;3.15;1.25;;;;;;;32.21;21.35;100321.50;18475342;31;20226;-56
2022/06/24 09:37:07;;;;;;;2.27;1.10;;;;;;;32.57;22.03;100317.28;18401793;32;20097;-56
2022/06/24 09:47:11;;;;;;;1.98;1.30;;;;;;;33.12;20.66;100302.06;18363906;32;20124;-56
2022/06/24 09:57:17;;;;;;;3.05;1.23;;;;;;;32.99;22.44;100302.44;18419268;32;20101;-55
2022/06/24 10:07:25;;;;;;;3.65;1.17;;;;;;;33.59;19.25;100301.84;18420710;32;20081;-55
2022/06/24 10:17:37;;;;;;;2.00;1.30;;;;;;;33.76;21.55;100301.94;18416394;32;20100;-56
2022/06/24 10:28:08;;;;;;;5.07;1.40;;;;;;;34.48;19.03;100278.34;18419596;31;20117;-56
2022/06/24 10:38:11;;;;;;;2.00;1.20;;;;;;;34.42;20.96;100277.13;18373048;31;20827;-56
2022/06/24 10:48:16;;;;;;;2.45;1.10;;;;;;;34.65;18.35;100266.56;18406143;31;20093;-55
2022/06/24 10:58:19;;;;;;;4.62;1.15;;;;;;;34.13;20.96;100256.69;18352961;32;20101;-55
2022/06/24 11:08:25;;;;;;;3.78;1.30;;;;;;;34.31;20.16;100237.63;18353156;32;20350;-56
2022/06/24 11:18:30;;;;;;;2.15;1.25;;;;;;;35.18;18.83;100238.38;18354264;32;20160;-55
2022/06/24 11:28:37;;;;;;;3.03;1.20;;;;;;;34.97;21.34;100223.44;18360626;32;20408;-55
2022/06/24 11:38:54;;;;;;;2.83;1.30;;;;;;;35.03;20.01;100202.94;18384459;32;20156;-54
2022/06/24 11:49:11;;;;;;;3.35;1.27;;;;;;;35.06;18.71;100187.19;18378979;32;20082;-55
2022/06/24 11:59:14;;;;;;;3.22;1.17;;;;;;;35.21;18.66;100189.22;18373795;31;20358;-56
2022/06/24 12:09:31;;;;;;;2.40;1.30;;;;;;;34.84;19.15;100183.25;18399254;32;20176;-55
2022/06/24 12:19:37;;;;;;;4.25;1.20;;;;;;;35.32;18.64;100171.75;18410730;32;20419;-56
2022/06/24 12:29:43;;;;;;;3.37;1.23;;;;;;;35.92;17.09;100161.44;18398040;31;20439;-55
2022/06/24 12:39:53;;;;;;;1.80;1.20;;;;;;;35.33;18.05;100146.31;18386219;32;20085;-56
2022/06/24 13:00:18;;;;;;;1.95;0.98;;;;;;;36.24;17.45;100122.41;18395314;32;20079;-55
2022/06/24 13:10:23;;;;;;;3.05;1.37;;;;;;;36.01;16.07;100111.47;18420455;32;20104;-55
2022/06/24 13:20:26;;;;;;;3.12;1.23;;;;;;;36.09;16.65;100111.47;18473991;31;20365;-55
2022/06/24 13:30:31;;;;;;;2.55;1.17;;;;;;;36.23;16.59;100096.28;18419303;32;20472;-56
2022/06/24 13:40:35;;;;;;;2.55;1.30;;;;;;;34.86;18.24;100076.34;18418647;32;20092;-56
2022/06/24 13:50:40;;;;;;;2.85;1.27;;;;;;;35.65;17.03;100053.13;18391187;32;20089;-55
2022/06/24 14:00:43;;;;;;;2.55;1.60;;;;;;;35.63;16.52;100044.31;18354359;32;20097;-56
2022/06/24 14:10:48;;;;;;;2.12;1.30;;;;;;;35.25;17.09;100042.22;18355355;32;20089;-56
2022/06/24 14:20:57;;;;;;;2.25;1.05;;;;;;;34.53;17.92;100035.69;18355011;32;20133;-55
2022/06/24 14:31:04;;;;;;;5.87;1.40;;;;;;;34.87;18.62;100039.22;18353223;32;20425;-56
2022/06/24 14:41:07;;;;;;;2.72;1.48;;;;;;;34.73;18.39;100014.53;18405258;31;20667;-55
2022/06/24 14:51:14;;;;;;;3.70;1.92;;;;;;;34.82;17.01;100019.94;18405692;31;20125;-55
2022/06/24 15:01:18;;;;;;;2.85;1.58;;;;;;;34.05;18.78;100011.09;18358492;32;20445;-55
2022/06/24 15:11:23;;;;;;;2.78;1.45;;;;;;;33.96;18.44;100003.94;18462390;31;20102;-55
2022/06/24 15:21:27;;;;;;;3.58;1.33;;;;;;;33.70;19.70;99994.09;18421847;31;20105;-56
2022/06/24 15:31:31;;;;;;;2.58;1.40;;;;;;;33.94;19.58;99992.44;18362770;32;20100;-55
2022/06/24 15:41:34;;;;;;;4.50;1.40;;;;;;;33.91;19.20;99980.06;18362008;32;20141;-55
2022/06/24 15:51:39;;;;;;;3.60;1.23;;;;;;;33.73;19.59;99975.66;18380498;32;20093;-56
2022/06/24 16:01:42;;;;;;;1.90;1.10;;;;;;;33.35;20.45;99969.75;18448223;31;20105;-56
2022/06/24 16:22:06;;;;;;;5.22;1.50;;;;;;;33.31;20.56;99942.19;18362844;31;20125;-55
2022/06/24 16:32:10;;;;;;;2.33;1.15;;;;;;;32.96;22.30;99941.34;18413597;31;20123;-56
2022/06/24 16:42:14;;;;;;;3.30;1.45;;;;;;;32.26;22.68;99929.53;18413236;31;20140;-56
2022/06/24 16:52:18;;;;;;;2.90;1.40;;;;;;;32.60;22.35;99936.06;18360875;32;20097;-55
2022/06/24 17:02:21;;;;;;;1.33;1.08;;;;;;;32.19;22.54;99942.81;18358972;32;20109;-55
2022/06/24 17:12:26;;;;;;;4.10;1.40;;;;;;;32.07;23.97;99955.69;18359513;32;20136;-55
2022/06/24 17:22:29;;;;;;;2.70;1.42;;;;;;;31.03;23.12;99957.69;18358998;32;20097;-55
2022/06/24 17:32:34;;;;;;;2.62;1.17;;;;;;;31.55;22.93;99953.63;18358524;32;20120;-56
2022/06/24 17:42:38;;;;;;;4.07;1.35;;;;;;;31.41;22.42;99955.84;18411172;31;20111;-55
2022/06/24 17:52:42;;;;;;;3.17;1.35;;;;;;;31.24;23.60;99964.75;18360345;32;20096;-56
2022/06/24 18:02:46;;;;;;;4.22;1.25;;;;;;;31.29;24.70;99959.72;18443514;31;20115;-56
2022/06/24 18:13:01;;;;;;;4.80;1.20;;;;;;;30.65;26.86;99954.13;18383214;32;20093;-55
2022/06/24 18:23:07;;;;;;;3.92;1.52;;;;;;;30.15;27.92;99953.28;18436375;31;20403;-56
2022/06/24 18:33:12;;;;;;;2.45;1.40;;;;;;;29.56;29.61;99947.84;18435378;31;20573;-55
2022/06/24 18:43:15;;;;;;;5.10;1.90;;;;;;;29.03;30.18;99949.75;18381362;32;20089;-55
2022/06/24 18:53:20;;;;;;;3.87;1.60;;;;;;;28.50;32.33;99952.41;18435365;31;20118;-55
2022/06/24 19:03:24;;;;;;;3.35;1.60;;;;;;;27.97;32.90;99951.41;18375918;32;20437;-56
2022/06/24 19:13:28;;;;;;;4.55;1.65;;;;;;;27.72;31.35;99949.91;18362336;31;20141;-56
2022/06/24 19:23:33;;;;;;;4.72;1.50;;;;;;;27.58;29.10;99926.03;18368836;32;20497;-56
2022/06/24 19:33:37;;;;;;;4.32;1.75;;;;;;;27.78;29.01;99919.88;18362670;32;20164;-56
2022/06/24 19:43:42;;;;;;;4.35;1.45;;;;;;;27.95;27.96;99925.69;18380238;32;20117;-55
2022/06/24 19:53:46;;;;;;;5.20;1.65;;;;;;;27.61;27.94;99928.47;18392790;32;20093;-55
2022/06/24 20:14:12;;;;;;;;;;;;;;;28.33;27.50;99977.16;18410341;32;20111;-56
2022/06/24 20:24:18;;;;;;;2.95;1.55;;;;;;;27.97;28.94;99985.41;18396158;32;19995;-56
2022/06/24 20:34:23;;;;;;;2.92;1.30;;;;;;;27.96;28.99;99997.12;18386356;32;20138;-56
2022/06/24 20:44:26;;;;;;;1.98;1.10;;;;;;;27.83;29.21;99999.94;18392491;32;20085;-56
2022/06/24 20:54:31;;;;;;;2.60;1.10;;;;;;;27.46;30.40;99990.34;18402464;32;20093;-55
2022/06/24 21:04:34;;;;;;;2.80;1.20;;;;;;;27.28;30.05;99992.69;18419809;32;20112;-55
2022/06/24 21:14:39;;;;;;;2.75;1.20;;;;;;;27.03;31.38;100002.66;18419705;32;20108;-55
2022/06/24 21:24:42;;;;;;;3.62;1.37;;;;;;;26.59;33.01;100013.94;18418604;32;20092;-55
2022/06/24 21:34:47;;;;;;;4.95;1.40;;;;;;;26.06;35.82;100021.50;18419033;32;20711;-55
2022/06/24 21:44:50;;;;;;;4.80;1.45;;;;;;;25.38;36.36;100024.50;18418888;32;20120;-56
2022/06/24 21:54:55;;;;;;;3.45;1.50;;;;;;;24.99;37.81;100030.72;18418294;32;20416;-55
2022/06/24 22:04:58;;;;;;;3.70;1.30;;;;;;;24.90;37.84;100018.84;18417070;32;20100;-55
2022/06/24 22:15:03;;;;;;;3.65;1.70;;;;;;;24.55;38.16;100011.41;18420687;32;20186;-55
2022/06/24 22:25:07;;;;;;;3.97;1.37;;;;;;;24.50;38.17;100008.16;18420364;32;20081;-55
2022/06/24 22:35:13;;;;;;;3.97;1.37;;;;;;;24.27;39.29;100015.03;18419814;32;20432;-55
2022/06/24 22:45:16;;;;;;;3.78;1.25;;;;;;;24.18;39.83;100014.69;18419344;32;20137;-55
2022/06/24 22:55:21;;;;;;;2.08;1.30;;;;;;;23.48;38.55;100021.78;18418769;32;20096;-55
2022/06/24 23:05:25;;;;;;;2.87;1.58;;;;;;;24.63;35.48;100000.19;18418217;32;20097;-55
2022/06/24 23:15:29;;;;;;;2.12;1.25;;;;;;;24.92;35.01;99992.03;18418174;32;20162;-55
2022/06/24 23:25:33;;;;;;;1.67;1.10;;;;;;;24.27;37.89;99983.03;18426285;31;20113;-56
2022/06/24 23:35:37;;;;;;;3.87;1.50;;;;;;;24.48;38.18;100002.09;18427232;32;20116;-55
2022/06/24 23:45:41;;;;;;;3.78;1.30;;;;;;;24.65;37.62;99992.94;18426248;32;20211;-55
2022/06/24 23:55:46;;;;;;;2.80;1.35;;;;;;;24.62;38.61;99991.34;18426082;32;20144;-55
